sensor_id;sensor_type;location;lat;lon;timestamp;pressure;altitude;pressure_sealevel;temperature;humidity
37132;BME280;23035;50.032;21.978;2022-08-27T00:00:05;67008.72;;;17.45;100.00
37132;BME280;23035;50.032;21.978;2022-08-27T00:05:30;67097.03;;;18.23;100.00
37132;BME280;23035;50.032;21.978;2022-08-27T00:10:34;67150.88;;;18.69;100.00
37132;BME280;23035;50.032;21.978;2022-08-27T00:15:39;67073.31;;;18.01;100.00
37132;BME280;23035;50.032;21.978;2022-08-27T00:20:43;67067.84;;;17.93;100.00
37132;BME280;23035;50.032;21.978;2022-08-27T00:25:47;67133.19;;;18.57;100.00
37132;BME280;23035;50.032;21.978;2022-08-27T00:30:53;67094.25;;;18.18;100.00
37132;BME280;23035;50.032;21.978;2022-08-27T00:35:58;67098.66;;;18.25;100.00
37132;BME280;23035;50.032;21.978;2022-08-27T00:41:02;67120.28;;;18.48;100.00
37132;BME280;23035;50.032;21.978;2022-08-27T00:46:15;67024.81;;;17.58;100.00
37132;BME280;23035;50.032;21.978;2022-08-27T00:51:21;67058.13;;;17.84;100.00
37132;BME280;23035;50.032;21.978;2022-08-27T00:56:28;67054.91;;;17.81;100.00
37132;BME280;23035;50.032;21.978;2022-08-27T01:01:36;67116.41;;;18.39;100.00
37132;BME280;23035;50.032;21.978;2022-08-27T01:07:00;67022.66;;;17.56;100.00
37132;BME280;23035;50.032;21.978;2022-08-27T01:12:05;67016.13;;;17.47;100.00
37132;BME280;23035;50.032;21.978;2022-08-27T01:17:12;66995.09;;;17.27;100.00
37132;BME280;23035;50.032;21.978;2022-08-27T01:22:25;66944.44;;;16.79;100.00
37132;BME280;23035;50.032;21.978;2022-08-27T01:27:33;66923.41;;;16.59;100.00
37132;BME280;23035;50.032;21.978;2022-08-27T01:32:37;66945.06;;;16.82;100.00
37132;BME280;23035;50.032;21.978;2022-08-27T01:37:43;67040.31;;;17.67;100.00
37132;BME280;23035;50.032;21.978;2022-08-27T01:42:52;67090.03;;;18.17;100.00
37132;BME280;23035;50.032;21.978;2022-08-27T01:47:58;67114.75;;;18.38;100.00
37132;BME280;23035;50.032;21.978;2022-08-27T01:53:04;67021.59;;;17.55;100.00
37132;BME280;23035;50.032;21.978;2022-08-27T01:58:12;67046.34;;;17.75;100.00
37132;BME280;23035;50.032;21.978;2022-08-27T02:03:16;67026.31;;;17.54;100.00
37132;BME280;23035;50.032;21.978;2022-08-27T02:08:21;67043.72;;;17.75;100.00
37132;BME280;23035;50.032;21.978;2022-08-27T02:13:26;67075.06;;;18.08;100.00
37132;BME280;23035;50.032;21.978;2022-08-27T02:18:30;67059.09;;;17.80;100.00
37132;BME280;23035;50.032;21.978;2022-08-27T02:23:35;67013.97;;;17.45;100.00
37132;BME280;23035;50.032;21.978;2022-08-27T02:28:40;66969.28;;;17.05;100.00
37132;BME280;23035;50.032;21.978;2022-08-27T02:33:44;67021.44;;;17.49;100.00
37132;BME280;23035;50.032;21.978;2022-08-27T02:38:48;67014.56;;;17.48;100.00
37132;BME280;23035;50.032;21.978;2022-08-27T02:43:53;67012.28;;;17.41;100.00
37132;BME280;23035;50.032;21.978;2022-08-27T02:48:57;67010.66;;;17.39;100.00
37132;BME280;23035;50.032;21.978;2022-08-27T02:54:01;66996.72;;;17.29;100.00
37132;BME280;23035;50.032;21.978;2022-08-27T02:59:11;66974.63;;;17.08;100.00
37132;BME280;23035;50.032;21.978;2022-08-27T03:04:15;66997.78;;;17.30;100.00
37132;BME280;23035;50.032;21.978;2022-08-27T03:09:20;66972.53;;;17.08;100.00
37132;BME280;23035;50.032;21.978;2022-08-27T03:14:25;66911.00;;;16.48;100.00
37132;BME280;23035;50.032;21.978;2022-08-27T03:19:29;66955.22;;;16.89;100.00
37132;BME280;23035;50.032;21.978;2022-08-27T03:24:34;66995.78;;;17.33;100.00
37132;BME280;23035;50.032;21.978;2022-08-27T03:29:39;66984.38;;;17.19;100.00
37132;BME280;23035;50.032;21.978;2022-08-27T03:34:43;67037.78;;;17.70;100.00
37132;BME280;23035;50.032;21.978;2022-08-27T03:39:46;67036.00;;;17.63;100.00
37132;BME280;23035;50.032;21.978;2022-08-27T03:44:52;67064.69;;;17.93;100.00
37132;BME280;23035;50.032;21.978;2022-08-27T03:49:55;67006.41;;;17.38;100.00
37132;BME280;23035;50.032;21.978;2022-08-27T03:55:01;66955.22;;;16.89;100.00
37132;BME280;23035;50.032;21.978;2022-08-27T04:00:10;67018.91;;;17.52;100.00
37132;BME280;23035;50.032;21.978;2022-08-27T04:05:14;67060.81;;;17.87;100.00
37132;BME280;23035;50.032;21.978;2022-08-27T04:10:18;67013.44;;;17.44;100.00
37132;BME280;23035;50.032;21.978;2022-08-27T04:15:23;67054.44;;;17.83;100.00
37132;BME280;23035;50.032;21.978;2022-08-27T04:20:27;67056.13;;;17.87;100.00
37132;BME280;23035;50.032;21.978;2022-08-27T04:25:37;67073.38;;;18.03;100.00
37132;BME280;23035;50.032;21.978;2022-08-27T04:30:45;67130.44;;;18.52;100.00
37132;BME280;23035;50.032;21.978;2022-08-27T04:35:56;67117.59;;;18.45;100.00
37132;BME280;23035;50.032;21.978;2022-08-27T04:41:01;67112.69;;;18.38;100.00
37132;BME280;23035;50.032;21.978;2022-08-27T04:46:30;67164.63;;;18.92;100.00
37132;BME280;23035;50.032;21.978;2022-08-27T04:51:34;67241.66;;;19.57;100.00
37132;BME280;23035;50.032;21.978;2022-08-27T04:56:39;67300.03;;;20.15;94.79
37132;BME280;23035;50.032;21.978;2022-08-27T05:01:44;67341.19;;;20.56;92.45
37132;BME280;23035;50.032;21.978;2022-08-27T05:06:49;67388.16;;;20.98;88.03
37132;BME280;23035;50.032;21.978;2022-08-27T05:11:56;67320.03;;;20.33;92.57
37132;BME280;23035;50.032;21.978;2022-08-27T05:17:01;67315.72;;;20.29;94.32
37132;BME280;23035;50.032;21.978;2022-08-27T05:22:05;67313.03;;;20.27;93.45
37132;BME280;23035;50.032;21.978;2022-08-27T05:27:09;67389.28;;;21.01;89.50
37132;BME280;23035;50.032;21.978;2022-08-27T05:32:15;67406.00;;;21.14;88.35
37132;BME280;23035;50.032;21.978;2022-08-27T05:37:19;67288.25;;;20.06;94.18
37132;BME280;23035;50.032;21.978;2022-08-27T05:42:23;67363.34;;;20.77;93.23
37132;BME280;23035;50.032;21.978;2022-08-27T05:47:29;67393.66;;;21.08;90.68
37132;BME280;23035;50.032;21.978;2022-08-27T05:52:38;67468.28;;;21.78;86.90
37132;BME280;23035;50.032;21.978;2022-08-27T05:57:42;67668.44;;;23.61;74.08
37132;BME280;23035;50.032;21.978;2022-08-27T06:02:48;67574.28;;;22.75;77.92
37132;BME280;23035;50.032;21.978;2022-08-27T06:07:52;67531.06;;;22.37;81.60
37132;BME280;23035;50.032;21.978;2022-08-27T06:12:57;67591.63;;;22.92;77.78
37132;BME280;23035;50.032;21.978;2022-08-27T06:18:12;67636.59;;;23.36;72.79
37132;BME280;23035;50.032;21.978;2022-08-27T06:23:17;67631.59;;;23.27;75.95
37132;BME280;23035;50.032;21.978;2022-08-27T06:28:30;67713.97;;;24.07;70.30
37132;BME280;23035;50.032;21.978;2022-08-27T06:33:50;67707.97;;;23.98;71.16
37132;BME280;23035;50.032;21.978;2022-08-27T06:39:16;67693.34;;;23.85;71.83
37132;BME280;23035;50.032;21.978;2022-08-27T06:44:25;67739.56;;;24.36;71.06
37132;BME280;23035;50.032;21.978;2022-08-27T06:49:42;67887.47;;;25.72;59.57
37132;BME280;23035;50.032;21.978;2022-08-27T06:55:00;67808.78;;;24.96;63.39
37132;BME280;23035;50.032;21.978;2022-08-27T07:00:09;67902.56;;;25.81;60.54
37132;BME280;23035;50.032;21.978;2022-08-27T07:05:18;67785.44;;;24.71;67.26
37132;BME280;23035;50.032;21.978;2022-08-27T07:10:22;67842.44;;;25.27;64.85
37132;BME280;23035;50.032;21.978;2022-08-27T07:15:26;67864.13;;;25.48;63.06
37132;BME280;23035;50.032;21.978;2022-08-27T07:20:41;67906.97;;;25.88;62.37
37132;BME280;23035;50.032;21.978;2022-08-27T07:25:46;67922.72;;;26.05;61.14
37132;BME280;23035;50.032;21.978;2022-08-27T07:31:06;67993.75;;;26.69;58.11
37132;BME280;23035;50.032;21.978;2022-08-27T07:36:13;68023.00;;;26.94;56.74
37132;BME280;23035;50.032;21.978;2022-08-27T07:41:17;68057.81;;;27.32;54.50
37132;BME280;23035;50.032;21.978;2022-08-27T07:46:22;68181.56;;;28.43;50.21
37132;BME280;23035;50.032;21.978;2022-08-27T07:51:28;68087.13;;;27.59;53.36
37132;BME280;23035;50.032;21.978;2022-08-27T07:56:34;68099.00;;;27.65;54.91
37132;BME280;23035;50.032;21.978;2022-08-27T08:01:38;68181.59;;;28.45;50.65
37132;BME280;23035;50.032;21.978;2022-08-27T08:06:45;68183.78;;;28.47;51.93
37132;BME280;23035;50.032;21.978;2022-08-27T08:11:50;68229.47;;;28.93;50.95
37132;BME280;23035;50.032;21.978;2022-08-27T08:16:57;68109.91;;;27.78;54.59
37132;BME280;23035;50.032;21.978;2022-08-27T08:22:02;68181.50;;;28.40;53.64
37132;BME280;23035;50.032;21.978;2022-08-27T08:27:07;68251.19;;;29.13;50.82
37132;BME280;23035;50.032;21.978;2022-08-27T08:35:17;68198.44;;;28.61;50.96
37132;BME280;23035;50.032;21.978;2022-08-27T08:40:31;68134.34;;;28.01;53.87
37132;BME280;23035;50.032;21.978;2022-08-27T08:45:38;68247.34;;;29.07;52.86
37132;BME280;23035;50.032;21.978;2022-08-27T08:50:54;68308.72;;;29.62;49.14
37132;BME280;23035;50.032;21.978;2022-08-27T08:56:02;68312.00;;;29.67;50.77
37132;BME280;23035;50.032;21.978;2022-08-27T09:01:08;68253.38;;;29.15;50.21
37132;BME280;23035;50.032;21.978;2022-08-27T09:06:39;68355.50;;;30.08;47.29
37132;BME280;23035;50.032;21.978;2022-08-27T09:11:51;68352.84;;;30.08;47.03
37132;BME280;23035;50.032;21.978;2022-08-27T09:16:59;68315.84;;;29.71;46.33
37132;BME280;23035;50.032;21.978;2022-08-27T09:22:19;68428.88;;;30.72;44.61
37132;BME280;23035;50.032;21.978;2022-08-27T09:27:26;68387.00;;;30.35;43.20
37132;BME280;23035;50.032;21.978;2022-08-27T09:32:33;68427.34;;;30.78;42.09
37132;BME280;23035;50.032;21.978;2022-08-27T09:37:41;68460.47;;;31.06;39.52
37132;BME280;23035;50.032;21.978;2022-08-27T09:42:48;68401.22;;;30.53;40.23
37132;BME280;23035;50.032;21.978;2022-08-27T09:48:06;68386.59;;;30.42;39.33
37132;BME280;23035;50.032;21.978;2022-08-27T09:53:18;68395.75;;;30.46;39.18
37132;BME280;23035;50.032;21.978;2022-08-27T09:58:30;68449.03;;;30.93;38.71
37132;BME280;23035;50.032;21.978;2022-08-27T10:03:36;68414.84;;;30.66;38.88
37132;BME280;23035;50.032;21.978;2022-08-27T10:08:45;68524.22;;;31.71;36.84
37132;BME280;23035;50.032;21.978;2022-08-27T10:13:53;68497.56;;;31.46;36.42
37132;BME280;23035;50.032;21.978;2022-08-27T10:19:14;68481.75;;;31.29;37.19
37132;BME280;23035;50.032;21.978;2022-08-27T10:24:30;68487.72;;;31.34;37.25
37132;BME280;23035;50.032;21.978;2022-08-27T10:29:43;68501.84;;;31.45;36.83
37132;BME280;23035;50.032;21.978;2022-08-27T10:35:00;68543.72;;;31.82;36.04
37132;BME280;23035;50.032;21.978;2022-08-27T10:40:14;68522.00;;;31.66;35.97
37132;BME280;23035;50.032;21.978;2022-08-27T10:45:26;68567.72;;;32.07;34.62
37132;BME280;23035;50.032;21.978;2022-08-27T10:50:40;68707.16;;;33.40;32.26
37132;BME280;23035;50.032;21.978;2022-08-27T10:55:51;68660.31;;;32.96;31.52
37132;BME280;23035;50.032;21.978;2022-08-27T11:01:02;68615.69;;;32.57;31.57
37132;BME280;23035;50.032;21.978;2022-08-27T11:06:14;68707.72;;;33.43;31.28
37132;BME280;23035;50.032;21.978;2022-08-27T11:11:32;68665.81;;;33.06;30.12
37132;BME280;23035;50.032;21.978;2022-08-27T11:17:02;68629.25;;;32.67;31.04
37132;BME280;23035;50.032;21.978;2022-08-27T11:22:12;68624.34;;;32.62;32.01
37132;BME280;23035;50.032;21.978;2022-08-27T11:27:31;68637.44;;;32.74;31.07
37132;BME280;23035;50.032;21.978;2022-08-27T11:32:48;68613.97;;;32.50;31.60
37132;BME280;23035;50.032;21.978;2022-08-27T11:38:11;68836.28;;;34.58;27.99
37132;BME280;23035;50.032;21.978;2022-08-27T11:43:25;68869.00;;;34.88;28.00
37132;BME280;23035;50.032;21.978;2022-08-27T11:48:33;69175.69;;;37.79;25.06
37132;BME280;23035;50.032;21.978;2022-08-27T11:53:40;69267.94;;;38.63;24.17
37132;BME280;23035;50.032;21.978;2022-08-27T11:59:07;69176.16;;;37.72;24.14
37132;BME280;23035;50.032;21.978;2022-08-27T12:04:32;69198.59;;;37.98;24.55
37132;BME280;23035;50.032;21.978;2022-08-27T12:09:55;69360.28;;;39.51;22.55
37132;BME280;23035;50.032;21.978;2022-08-27T12:15:07;69265.78;;;38.63;23.85
37132;BME280;23035;50.032;21.978;2022-08-27T12:20:20;69239.03;;;38.36;23.29
37132;BME280;23035;50.032;21.978;2022-08-27T12:25:26;69354.28;;;39.43;21.34
37132;BME280;23035;50.032;21.978;2022-08-27T12:30:33;69450.47;;;40.30;21.69
37132;BME280;23035;50.032;21.978;2022-08-27T12:35:42;69346.63;;;39.36;22.43
37132;BME280;23035;50.032;21.978;2022-08-27T12:40:49;69269.03;;;38.64;22.22
37132;BME280;23035;50.032;21.978;2022-08-27T12:45:57;69417.72;;;40.02;21.46
37132;BME280;23035;50.032;21.978;2022-08-27T12:51:07;69379.97;;;39.67;21.79
37132;BME280;23035;50.032;21.978;2022-08-27T12:56:35;69513.38;;;40.91;21.95
37132;BME280;23035;50.032;21.978;2022-08-27T13:01:55;69487.13;;;40.67;20.78
37132;BME280;23035;50.032;21.978;2022-08-27T13:07:03;69238.44;;;38.30;22.32
37132;BME280;23035;50.032;21.978;2022-08-27T13:12:14;69239.56;;;38.36;22.45
37132;BME280;23035;50.032;21.978;2022-08-27T13:17:20;69236.25;;;38.28;22.52
37132;BME280;23035;50.032;21.978;2022-08-27T13:22:29;69136.91;;;37.41;23.15
37132;BME280;23035;50.032;21.978;2022-08-27T13:27:35;69097.59;;;37.07;22.98
37132;BME280;23035;50.032;21.978;2022-08-27T13:32:41;69097.63;;;37.09;23.59
37132;BME280;23035;50.032;21.978;2022-08-27T13:37:49;68841.16;;;34.60;26.13
37132;BME280;23035;50.032;21.978;2022-08-27T13:43:03;68827.53;;;34.49;25.56
37132;BME280;23035;50.032;21.978;2022-08-27T13:48:11;68925.72;;;35.41;25.02
37132;BME280;23035;50.032;21.978;2022-08-27T13:53:20;69094.31;;;37.01;23.12
37132;BME280;23035;50.032;21.978;2022-08-27T13:58:42;69182.75;;;37.81;22.21
37132;BME280;23035;50.032;21.978;2022-08-27T14:03:54;69278.88;;;38.70;22.20
37132;BME280;23035;50.032;21.978;2022-08-27T14:09:08;69186.56;;;37.84;21.79
37132;BME280;23035;50.032;21.978;2022-08-27T14:19:25;69085.56;;;36.90;22.69
37132;BME280;23035;50.032;21.978;2022-08-27T14:24:37;69148.91;;;37.52;22.16
37132;BME280;23035;50.032;21.978;2022-08-27T14:29:41;69220.44;;;38.18;21.73
37132;BME280;23035;50.032;21.978;2022-08-27T14:34:47;69151.06;;;37.54;22.42
37132;BME280;23035;50.032;21.978;2022-08-27T14:39:51;69214.94;;;38.11;21.00
37132;BME280;23035;50.032;21.978;2022-08-27T14:44:56;69203.50;;;38.03;20.87
37132;BME280;23035;50.032;21.978;2022-08-27T14:50:05;69192.03;;;37.92;20.48
37132;BME280;23035;50.032;21.978;2022-08-27T14:55:10;69150.50;;;37.48;22.21
37132;BME280;23035;50.032;21.978;2022-08-27T15:00:16;69096.50;;;37.03;22.51
37132;BME280;23035;50.032;21.978;2022-08-27T15:05:21;69052.81;;;36.60;22.12
37132;BME280;23035;50.032;21.978;2022-08-27T15:10:26;69080.09;;;36.83;22.14
37132;BME280;23035;50.032;21.978;2022-08-27T15:15:30;69031.53;;;36.40;23.08
37132;BME280;23035;50.032;21.978;2022-08-27T15:20:35;69039.19;;;36.50;23.46
37132;BME280;23035;50.032;21.978;2022-08-27T15:25:39;69081.78;;;36.89;23.25
37132;BME280;23035;50.032;21.978;2022-08-27T15:30:43;69036.44;;;36.42;23.31
37132;BME280;23035;50.032;21.978;2022-08-27T15:35:49;69046.81;;;36.57;23.06
37132;BME280;23035;50.032;21.978;2022-08-27T15:40:53;68925.72;;;35.44;24.07
37132;BME280;23035;50.032;21.978;2022-08-27T15:45:56;68931.16;;;35.46;24.13
37132;BME280;23035;50.032;21.978;2022-08-27T15:51:05;68913.63;;;35.25;24.42
37132;BME280;23035;50.032;21.978;2022-08-27T15:56:14;68922.47;;;35.41;24.29
37132;BME280;23035;50.032;21.978;2022-08-27T16:01:23;68950.25;;;35.67;24.11
37132;BME280;23035;50.032;21.978;2022-08-27T16:06:29;68896.81;;;35.17;24.28
37132;BME280;23035;50.032;21.978;2022-08-27T16:11:33;68892.94;;;35.08;24.25
37132;BME280;23035;50.032;21.978;2022-08-27T16:16:37;68836.78;;;34.56;25.21
37132;BME280;23035;50.032;21.978;2022-08-27T16:21:43;68822.63;;;34.42;25.06
37132;BME280;23035;50.032;21.978;2022-08-27T16:26:47;68812.31;;;34.38;25.32
37132;BME280;23035;50.032;21.978;2022-08-27T16:31:51;68822.63;;;34.42;25.45
37132;BME280;23035;50.032;21.978;2022-08-27T16:37:03;68739.81;;;33.67;25.81
37132;BME280;23035;50.032;21.978;2022-08-27T16:42:08;68647.19;;;32.81;26.77
37132;BME280;23035;50.032;21.978;2022-08-27T16:47:12;68566.03;;;32.03;27.94
37132;BME280;23035;50.032;21.978;2022-08-27T16:52:17;68516.03;;;31.61;28.71
37132;BME280;23035;50.032;21.978;2022-08-27T16:57:22;68466.94;;;31.07;30.02
37132;BME280;23035;50.032;21.978;2022-08-27T17:02:29;68374.03;;;30.28;31.84
37132;BME280;23035;50.032;21.978;2022-08-27T17:07:34;68357.66;;;30.08;32.33
37132;BME280;23035;50.032;21.978;2022-08-27T17:12:41;68315.22;;;29.68;34.48
37132;BME280;23035;50.032;21.978;2022-08-27T17:17:47;68119.13;;;27.87;44.03
37132;BME280;23035;50.032;21.978;2022-08-27T17:22:54;67972.59;;;26.49;49.56
37132;BME280;23035;50.032;21.978;2022-08-27T17:27:57;67931.81;;;26.06;54.58
37132;BME280;23035;50.032;21.978;2022-08-27T17:33:02;67831.56;;;25.17;58.59
37132;BME280;23035;50.032;21.978;2022-08-27T17:38:07;67810.31;;;24.92;61.21
37132;BME280;23035;50.032;21.978;2022-08-27T17:43:11;67802.31;;;24.89;62.88
37132;BME280;23035;50.032;21.978;2022-08-27T17:48:22;67725.84;;;24.15;67.57
37132;BME280;23035;50.032;21.978;2022-08-27T17:53:29;67671.19;;;23.66;67.95
37132;BME280;23035;50.032;21.978;2022-08-27T17:58:33;67625.13;;;23.21;71.88
37132;BME280;23035;50.032;21.978;2022-08-27T18:03:37;67611.09;;;23.10;70.31
37132;BME280;23035;50.032;21.978;2022-08-27T18:08:51;67621.84;;;23.17;69.28
37132;BME280;23035;50.032;21.978;2022-08-27T18:13:57;67585.59;;;22.83;71.77
37132;BME280;23035;50.032;21.978;2022-08-27T18:19:06;67635.94;;;23.31;71.46
37132;BME280;23035;50.032;21.978;2022-08-27T18:24:11;67707.97;;;23.98;67.02
37132;BME280;23035;50.032;21.978;2022-08-27T18:29:15;67718.78;;;24.09;67.02
37132;BME280;23035;50.032;21.978;2022-08-27T18:34:19;67754.06;;;24.44;65.02
37132;BME280;23035;50.032;21.978;2022-08-27T18:39:24;67738.34;;;24.29;67.38
37132;BME280;23035;50.032;21.978;2022-08-27T18:44:29;67765.44;;;24.55;65.66
37132;BME280;23035;50.032;21.978;2022-08-27T18:49:37;67781.72;;;24.70;65.92
37132;BME280;23035;50.032;21.978;2022-08-27T18:54:42;67708.50;;;23.99;70.75
37132;BME280;23035;50.032;21.978;2022-08-27T18:59:46;67599.63;;;22.94;77.18
37132;BME280;23035;50.032;21.978;2022-08-27T19:04:50;67548.13;;;22.43;81.26
37132;BME280;23035;50.032;21.978;2022-08-27T19:09:55;67540.19;;;22.43;81.38
37132;BME280;23035;50.032;21.978;2022-08-27T19:14:59;67611.63;;;23.10;77.96
37132;BME280;23035;50.032;21.978;2022-08-27T19:20:05;67575.19;;;22.69;81.25
37132;BME280;23035;50.032;21.978;2022-08-27T19:25:11;67597.56;;;22.97;80.61
37132;BME280;23035;50.032;21.978;2022-08-27T19:30:15;67599.13;;;22.96;80.16
37132;BME280;23035;50.032;21.978;2022-08-27T19:35:19;67589.38;;;22.87;81.42
37132;BME280;23035;50.032;21.978;2022-08-27T19:40:25;67573.63;;;22.70;82.24
37132;BME280;23035;50.032;21.978;2022-08-27T19:45:28;67603.44;;;23.00;80.11
37132;BME280;23035;50.032;21.978;2022-08-27T19:55:38;67479.66;;;21.89;87.37
37132;BME280;23035;50.032;21.978;2022-08-27T20:00:46;67391.38;;;21.01;94.04
37132;BME280;23035;50.032;21.978;2022-08-27T20:05:51;67348.09;;;20.57;96.84
37132;BME280;23035;50.032;21.978;2022-08-27T20:10:56;67314.63;;;20.28;100.00
37132;BME280;23035;50.032;21.978;2022-08-27T20:16:00;67339.56;;;20.54;99.56
37132;BME280;23035;50.032;21.978;2022-08-27T20:21:04;67323.81;;;20.37;100.00
37132;BME280;23035;50.032;21.978;2022-08-27T20:26:10;67339.03;;;20.54;100.00
37132;BME280;23035;50.032;21.978;2022-08-27T20:31:13;67390.78;;;20.98;97.58
37132;BME280;23035;50.032;21.978;2022-08-27T20:36:22;67309.72;;;20.21;100.00
37132;BME280;23035;50.032;21.978;2022-08-27T20:41:28;67267.72;;;19.87;100.00
37132;BME280;23035;50.032;21.978;2022-08-27T20:46:32;67221.84;;;19.46;100.00
37132;BME280;23035;50.032;21.978;2022-08-27T20:51:36;67214.69;;;19.34;100.00
37132;BME280;23035;50.032;21.978;2022-08-27T20:57:02;67290.88;;;20.06;100.00
37132;BME280;23035;50.032;21.978;2022-08-27T21:02:09;67323.81;;;20.37;98.82
37132;BME280;23035;50.032;21.978;2022-08-27T21:07:14;67316.66;;;20.25;99.90
37132;BME280;23035;50.032;21.978;2022-08-27T21:12:21;67436.22;;;21.40;91.36
37132;BME280;23035;50.032;21.978;2022-08-27T21:17:26;67447.06;;;21.53;89.85
37132;BME280;23035;50.032;21.978;2022-08-27T21:22:30;67491.34;;;21.92;87.24
37132;BME280;23035;50.032;21.978;2022-08-27T21:27:36;67512.56;;;22.15;86.68
37132;BME280;23035;50.032;21.978;2022-08-27T21:32:40;67493.53;;;21.94;87.11
37132;BME280;23035;50.032;21.978;2022-08-27T21:37:44;67563.94;;;22.63;82.88
37132;BME280;23035;50.032;21.978;2022-08-27T21:42:50;67521.66;;;22.21;84.51
37132;BME280;23035;50.032;21.978;2022-08-27T21:47:54;67484.94;;;21.89;87.12
37132;BME280;23035;50.032;21.978;2022-08-27T21:52:58;67388.16;;;20.98;90.87
37132;BME280;23035;50.032;21.978;2022-08-27T21:58:03;67393.63;;;21.05;92.82
37132;BME280;23035;50.032;21.978;2022-08-27T22:03:08;67409.16;;;21.15;94.67
37132;BME280;23035;50.032;21.978;2022-08-27T22:08:14;67445.47;;;21.52;89.68
37132;BME280;23035;50.032;21.978;2022-08-27T22:13:19;67483.31;;;21.87;86.51
37132;BME280;23035;50.032;21.978;2022-08-27T22:18:23;67487.63;;;21.91;85.39
37132;BME280;23035;50.032;21.978;2022-08-27T22:23:30;67419.03;;;21.29;90.08
37132;BME280;23035;50.032;21.978;2022-08-27T22:28:35;67444.88;;;21.48;89.31
37132;BME280;23035;50.032;21.978;2022-08-27T22:33:39;67425.88;;;21.28;91.69
37132;BME280;23035;50.032;21.978;2022-08-27T22:38:43;67436.75;;;21.41;90.72
37132;BME280;23035;50.032;21.978;2022-08-27T22:43:50;67299.44;;;20.12;99.52
37132;BME280;23035;50.032;21.978;2022-08-27T22:48:59;67404.84;;;21.11;93.58
37132;BME280;23035;50.032;21.978;2022-08-27T22:54:03;67418.56;;;21.31;89.44
37132;BME280;23035;50.032;21.978;2022-08-27T22:59:08;67358.97;;;20.70;93.78
37132;BME280;23035;50.032;21.978;2022-08-27T23:04:12;67241.19;;;19.59;100.00
37132;BME280;23035;50.032;21.978;2022-08-27T23:09:16;67271.88;;;19.86;100.00
37132;BME280;23035;50.032;21.978;2022-08-27T23:14:21;67220.59;;;19.37;100.00
37132;BME280;23035;50.032;21.978;2022-08-27T23:19:25;67280.63;;;19.96;100.00
37132;BME280;23035;50.032;21.978;2022-08-27T23:24:32;67325.84;;;20.34;98.07
37132;BME280;23035;50.032;21.978;2022-08-27T23:29:37;67304.84;;;20.17;99.15
37132;BME280;23035;50.032;21.978;2022-08-27T23:34:41;67333.50;;;20.44;97.15
37132;BME280;23035;50.032;21.978;2022-08-27T23:39:44;67299.03;;;20.16;99.16
37132;BME280;23035;50.032;21.978;2022-08-27T23:44:49;67294.72;;;20.12;99.87
37132;BME280;23035;50.032;21.978;2022-08-27T23:49:53;67329.78;;;20.43;96.46
37132;BME280;23035;50.032;21.978;2022-08-27T23:54:57;67327.00;;;20.38;96.53
